KMM31GK GCTS-LMML
Flight info
| Callsign | KMM31GK |
|---|---|
| Flight time | N/A |
| Altitude | 38000 |
| Route | VEDOD DCT NISUR UG5 SAK UR975 DONAS/N0442F370 UR975 FES/N0444F390 UA411 TUC UR781 SONAK DCT DOBIX DCT GZO DCT MALTI |
| Aircraft | A20N/M-SDE2E3FGHIRWXY/LB1 |
Departure
| Time | 2026-04-29 12:28 |
|---|---|
| Airport | Tenerife Sur Airport (GCTS) |
Arrival
| Time | N/A |
|---|---|
| Airport | Malta International Airport (LMML) |
| Time | Latitude | Longitude | Altitude | Speed | Heading |
|---|---|---|---|---|---|
| 2026-04-29 12:13 | 28.04811 | -16.57407 | 207 ft | 0 kts | 335° |
| 2026-04-29 12:18 | 28.04802 | -16.57403 | 211 ft | 5 kts | 336° |
| 2026-04-29 12:18 | 28.04793 | -16.57399 | 207 ft | 7 kts | 337° |
| 2026-04-29 12:19 | 28.04781 | -16.57393 | 207 ft | 8 kts | 339° |
| 2026-04-29 12:19 | 28.04766 | -16.57387 | 216 ft | 10 kts | 335° |
| 2026-04-29 12:19 | 28.04753 | -16.57379 | 209 ft | 3 kts | 316° |
| 2026-04-29 12:19 | 28.04748 | -16.57375 | 211 ft | 4 kts | 292° |
| 2026-04-29 12:20 | 28.04746 | -16.57369 | 209 ft | 0 kts | 274° |
| 2026-04-29 12:20 | 28.04745 | -16.57371 | 210 ft | 2 kts | 263° |
| 2026-04-29 12:20 | 28.04744 | -16.57375 | 210 ft | 0 kts | 255° |
| 2026-04-29 12:21 | 28.04739 | -16.57392 | 207 ft | 16 kts | 251° |
| 2026-04-29 12:21 | 28.04714 | -16.57464 | 210 ft | 25 kts | 248° |
| 2026-04-29 12:22 | 28.04681 | -16.57557 | 206 ft | 24 kts | 248° |
| 2026-04-29 12:22 | 28.04653 | -16.57639 | 210 ft | 22 kts | 248° |
| 2026-04-29 12:22 | 28.04614 | -16.57722 | 214 ft | 17 kts | 218° |
| 2026-04-29 12:22 | 28.04571 | -16.57724 | 208 ft | 11 kts | 155° |
| 2026-04-29 12:23 | 28.04506 | -16.57705 | 207 ft | 23 kts | 185° |
| 2026-04-29 12:23 | 28.04462 | -16.57765 | 210 ft | 20 kts | 250° |
| 2026-04-29 12:23 | 28.04418 | -16.57896 | 207 ft | 42 kts | 249° |
| 2026-04-29 12:23 | 28.04365 | -16.58047 | 206 ft | 41 kts | 248° |
| 2026-04-29 12:24 | 28.04310 | -16.58188 | 204 ft | 37 kts | 246° |
| 2026-04-29 12:24 | 28.04254 | -16.58332 | 205 ft | 42 kts | 245° |
| 2026-04-29 12:24 | 28.04203 | -16.58479 | 205 ft | 38 kts | 252° |
| 2026-04-29 12:24 | 28.04165 | -16.58612 | 201 ft | 34 kts | 250° |
| 2026-04-29 12:25 | 28.04117 | -16.58749 | 210 ft | 39 kts | 244° |
| 2026-04-29 12:25 | 28.04065 | -16.58864 | 197 ft | 32 kts | 257° |
| 2026-04-29 12:25 | 28.04018 | -16.58988 | 199 ft | 8 kts | 201° |
| 2026-04-29 12:26 | 28.03938 | -16.58960 | 204 ft | 35 kts | 134° |
| 2026-04-29 12:26 | 28.03894 | -16.58840 | 205 ft | 32 kts | 84° |
| 2026-04-29 12:26 | 28.03929 | -16.58731 | 199 ft | 21 kts | 69° |
| 2026-04-29 12:26 | 28.03935 | -16.58715 | 205 ft | 0 kts | 69° |
| 2026-04-29 12:27 | 28.03951 | -16.58669 | 209 ft | 35 kts | 69° |
| 2026-04-29 12:27 | 28.04036 | -16.58422 | 208 ft | 87 kts | 69° |
| 2026-04-29 12:27 | 28.04176 | -16.58021 | 211 ft | 132 kts | 68° |
| 2026-04-29 12:27 | 28.04375 | -16.57456 | 211 ft | 174 kts | 68° |
| 2026-04-29 12:28 | 28.04614 | -16.56782 | 413 ft | 195 kts | 68° |
| 2026-04-29 12:28 | 28.04998 | -16.55690 | 786 ft | 224 kts | 68° |
| 2026-04-29 12:28 | 28.05558 | -16.54057 | 1247 ft | 204 kts | 69° |